Weather at Lamco Airport

Public forecast

Using degrees Celsius for public forecast. Weather courtesy of forecast.io.

Closest aviation weather report (METAR) to Lamco Airport

Report is more than 2 hours old.

Closest report is Roberts International Airport, 30.5 nm (56.4 km) NW. Retrieved 2021/05/16 00:00 UTC (5 hours ago):

GLRB 160000Z 00000KT 9999 TS BKN013 FEW022CB 24/24 Q1012 TEMPO TS RMK CB-SW

Closest aviation forecast (TAF) to Lamco Airport

Forecast is more than 12 hours old.

Closest forecast is Roberts International Airport, 30.5 nm (56.4 km) NW. Retrieved 2021/05/12 18:51 UTC (3 days ago):

TAF TAF GLRB 121700Z 1218/1318 22008KT 9000 BKN015 TEMPO 1218/1222 21006KT 7000 TSRA BKN011 FEW022CB BECMG 1223/1301 04005KT 8000 TSRA BKN012 FEW020CB